createdAt,value
2023-04-12T00:02:07.926Z,89.69
2023-04-12T00:06:27.774Z,89.90
2023-04-12T00:10:45.728Z,89.75
2023-04-12T00:15:03.328Z,89.73
2023-04-12T00:19:22.558Z,89.75
2023-04-12T00:23:40.498Z,89.90
2023-04-12T00:27:58.771Z,89.89
2023-04-12T00:32:16.401Z,89.86
2023-04-12T00:36:33.915Z,89.68
2023-04-12T00:40:51.557Z,89.84
2023-04-12T00:45:09.653Z,89.59
2023-04-12T00:49:31.060Z,89.55
2023-04-12T00:53:49.255Z,89.41
2023-04-12T00:58:06.867Z,89.15
2023-04-12T01:02:24.725Z,88.35
2023-04-12T01:07:19.886Z,88.59
2023-04-12T01:12:31.739Z,88.76
2023-04-12T01:16:52.471Z,88.86
2023-04-12T01:21:17.137Z,88.90
2023-04-12T01:25:39.607Z,88.77
2023-04-12T01:30:00.338Z,88.67
2023-04-12T01:34:18.615Z,88.51
2023-04-12T01:38:36.447Z,88.66
2023-04-12T01:43:11.014Z,88.51
2023-04-12T01:47:29.050Z,88.39
2023-04-12T01:52:08.392Z,88.18
2023-04-12T01:56:32.115Z,88.36
2023-04-12T02:00:51.238Z,88.13
2023-04-12T02:05:10.443Z,88.18
2023-04-12T02:09:28.189Z,88.25
2023-04-12T02:13:46.130Z,88.19
2023-04-12T02:18:03.812Z,88.46
2023-04-12T02:22:21.620Z,88.47
2023-04-12T02:26:40.376Z,88.49
2023-04-12T02:30:57.907Z,88.29
2023-04-12T02:35:19.584Z,88.41
2023-04-12T02:39:37.515Z,88.40
2023-04-12T02:43:55.144Z,88.65
2023-04-12T02:48:12.941Z,88.82
2023-04-12T02:52:30.594Z,88.72
2023-04-12T02:56:48.614Z,88.79
2023-04-12T03:01:09.309Z,89.06
2023-04-12T03:05:27.574Z,88.94
2023-04-12T03:09:47.304Z,88.97
2023-04-12T03:14:04.807Z,89.00
2023-04-12T03:18:23.895Z,88.80
2023-04-12T03:22:41.658Z,89.06
2023-04-12T03:26:59.225Z,88.82
2023-04-12T03:31:21.299Z,88.51
2023-04-12T03:35:39.113Z,88.65
2023-04-12T03:39:56.681Z,88.40
2023-04-12T03:44:14.700Z,88.35
2023-04-12T03:48:32.568Z,88.57
2023-04-12T03:52:50.536Z,88.57
2023-04-12T03:57:08.237Z,88.46
2023-04-12T04:01:26.324Z,88.36
2023-04-12T04:05:43.951Z,88.61
2023-04-12T04:10:01.926Z,88.36
2023-04-12T04:14:19.630Z,88.17
2023-04-12T04:18:37.412Z,88.34
2023-04-12T04:22:54.909Z,88.10
2023-04-12T04:27:16.379Z,88.31
2023-04-12T04:31:38.078Z,87.92
2023-04-12T04:35:57.353Z,88.13
2023-04-12T04:40:15.641Z,87.90
2023-04-12T04:44:36.344Z,87.88
2023-04-12T04:48:55.545Z,87.49
2023-04-12T04:53:13.916Z,87.51
2023-04-12T04:57:31.954Z,87.58
2023-04-12T05:01:50.082Z,87.36
2023-04-12T05:06:08.941Z,86.90
2023-04-12T05:10:26.593Z,86.98
2023-04-12T05:14:48.051Z,86.69
2023-04-12T05:19:08.917Z,87.24
2023-04-12T05:23:27.784Z,86.51
2023-04-12T05:27:45.955Z,86.54
2023-04-12T05:32:03.544Z,86.41
2023-04-12T05:36:21.530Z,86.64
2023-04-12T05:40:39.225Z,86.54
2023-04-12T05:44:56.699Z,86.68
2023-04-12T05:49:14.539Z,86.79
2023-04-12T05:53:33.052Z,86.29
2023-04-12T05:57:51.835Z,85.76
2023-04-12T06:02:10.939Z,86.02
2023-04-12T06:06:30.599Z,85.32
2023-04-12T06:10:48.230Z,85.38
2023-04-12T06:15:07.161Z,85.47
2023-04-12T06:19:24.689Z,85.57
2023-04-12T06:23:42.681Z,85.17
2023-04-12T06:28:00.176Z,85.10
2023-04-12T06:32:18.958Z,84.42
2023-04-12T06:36:36.869Z,84.48
2023-04-12T06:40:54.445Z,83.98
2023-04-12T06:45:12.237Z,83.85
2023-04-12T06:49:29.920Z,84.04
2023-04-12T06:53:47.544Z,83.60
2023-04-12T06:58:05.865Z,82.04
2023-04-12T07:02:23.604Z,81.40
2023-04-12T07:06:41.530Z,82.72
2023-04-12T07:11:03.659Z,80.77
2023-04-12T07:15:26.251Z,80.94
2023-04-12T07:19:44.792Z,80.44
2023-04-12T07:24:02.522Z,81.09
2023-04-12T07:28:20.779Z,80.04
2023-04-12T07:32:38.709Z,80.37
2023-04-12T07:36:56.826Z,79.33
2023-04-12T07:41:14.370Z,77.95
2023-04-12T07:45:32.100Z,76.62
2023-04-12T07:49:49.892Z,76.86
2023-04-12T07:54:07.445Z,74.34
2023-04-12T07:58:25.722Z,73.53
2023-04-12T08:02:43.194Z,70.84
2023-04-12T08:07:01.070Z,69.43
2023-04-12T08:11:18.708Z,69.44
2023-04-12T08:15:36.818Z,68.06
2023-04-12T08:19:54.375Z,67.85
2023-04-12T08:24:13.667Z,70.42
2023-04-12T08:28:31.607Z,68.10
2023-04-12T08:32:49.529Z,70.18
2023-04-12T08:37:07.217Z,66.83
2023-04-12T08:41:25.251Z,67.62
2023-04-12T08:45:42.920Z,68.02
2023-04-12T08:50:03.023Z,70.41
2023-04-12T08:54:20.855Z,69.44
2023-04-12T08:58:42.053Z,69.63
2023-04-12T09:03:00.729Z,70.93
2023-04-12T09:07:23.505Z,68.72
2023-04-12T09:11:41.191Z,68.61
2023-04-12T09:16:02.153Z,64.63
2023-04-12T09:20:20.165Z,66.12
2023-04-12T09:24:50.688Z,65.28
2023-04-12T09:29:25.984Z,65.13
2023-04-12T09:33:43.635Z,65.96
2023-04-12T09:38:09.099Z,59.56
2023-04-12T09:42:33.158Z,54.37
2023-04-12T09:46:52.546Z,59.63
2023-04-12T09:51:10.261Z,60.32
2023-04-12T09:55:30.223Z,54.82
2023-04-12T09:59:53.094Z,53.85
2023-04-12T10:04:11.956Z,46.64
2023-04-12T10:08:31.279Z,47.04
2023-04-12T10:12:49.670Z,44.86
2023-04-12T10:17:09.507Z,46.37
2023-04-12T10:21:27.736Z,46.14
2023-04-12T10:25:48.552Z,49.28
2023-04-12T10:30:27.966Z,49.09
2023-04-12T10:34:50.116Z,50.49
2023-04-12T10:39:15.000Z,49.58
